createdAt,value
2023-05-22T00:00:27.330Z,100814.11
2023-05-22T00:02:58.674Z,100811.61
2023-05-22T00:05:30.500Z,100810.95
2023-05-22T00:08:01.634Z,100811.18
2023-05-22T00:10:32.768Z,100806.41
2023-05-22T00:13:03.876Z,100807.33
2023-05-22T00:15:36.569Z,100806.36
2023-05-22T00:18:10.281Z,100805.39
2023-05-22T00:20:52.048Z,100802.52
2023-05-22T00:23:23.921Z,100804.14
2023-05-22T00:25:55.344Z,100799.20
2023-05-22T00:28:26.599Z,100797.86
2023-05-22T00:30:58.052Z,100797.23
2023-05-22T00:33:29.445Z,100795.36
2023-05-22T00:36:00.616Z,100798.64
2023-05-22T00:38:33.553Z,100799.20
2023-05-22T00:41:07.013Z,100795.65
2023-05-22T00:43:40.225Z,100793.13
2023-05-22T00:46:12.740Z,100797.65
2023-05-22T00:48:44.162Z,100796.16
2023-05-22T00:51:16.188Z,100801.70
2023-05-22T00:53:49.251Z,100800.20
2023-05-22T00:56:22.028Z,100799.54
2023-05-22T00:58:53.309Z,100797.70
2023-05-22T01:01:26.557Z,100799.82
2023-05-22T01:03:57.901Z,100799.68
2023-05-22T01:06:32.418Z,100796.62
2023-05-22T01:09:04.883Z,100796.50
2023-05-22T01:11:45.518Z,100795.33
2023-05-22T01:14:24.669Z,100793.44
2023-05-22T01:17:02.550Z,100795.89
2023-05-22T01:20:01.766Z,100797.48
2023-05-22T01:22:58.626Z,100797.86
2023-05-22T01:26:05.869Z,100799.28
2023-05-22T01:28:53.549Z,100795.06
2023-05-22T01:31:28.637Z,100798.06
2023-05-22T01:34:02.381Z,100798.30
2023-05-22T01:36:36.547Z,100798.38
2023-05-22T01:39:09.208Z,100798.80
2023-05-22T01:41:41.841Z,100800.07
2023-05-22T01:44:16.088Z,100796.84
2023-05-22T01:46:47.126Z,100792.81
2023-05-22T01:49:19.729Z,100799.20
2023-05-22T01:51:58.298Z,100795.16
2023-05-22T01:54:39.340Z,100798.84
2023-05-22T01:57:22.177Z,100793.42
2023-05-22T02:00:02.536Z,100794.33
2023-05-22T02:02:37.083Z,100795.79
2023-05-22T02:05:11.706Z,100794.32
2023-05-22T02:07:45.464Z,100797.48
2023-05-22T02:10:18.070Z,100799.61
2023-05-22T02:12:49.664Z,100801.40
2023-05-22T02:15:22.106Z,100797.33
2023-05-22T02:17:54.039Z,100799.44
2023-05-22T02:20:25.436Z,100799.30
2023-05-22T02:22:56.580Z,100805.53
2023-05-22T02:25:28.192Z,100800.25
2023-05-22T02:27:59.377Z,100799.75
2023-05-22T02:30:30.588Z,100802.52
2023-05-22T02:33:05.776Z,100797.92
2023-05-22T02:35:36.977Z,100799.32
2023-05-22T02:38:08.395Z,100797.47
2023-05-22T02:40:40.005Z,100795.10
2023-05-22T02:43:11.433Z,100790.14
2023-05-22T02:45:42.548Z,100792.89
2023-05-22T02:48:13.677Z,100789.65
2023-05-22T02:50:45.151Z,100790.02
2023-05-22T02:53:17.414Z,100787.45
2023-05-22T02:55:48.885Z,100785.75
2023-05-22T02:58:23.373Z,100781.30
2023-05-22T03:00:56.332Z,100781.14
2023-05-22T03:03:28.144Z,100780.95
2023-05-22T03:05:59.481Z,100779.77
2023-05-22T03:08:31.821Z,100777.35
2023-05-22T03:11:03.759Z,100778.22
2023-05-22T03:13:34.800Z,100776.66
2023-05-22T03:16:06.399Z,100777.86
2023-05-22T03:18:38.101Z,100776.31
2023-05-22T03:21:09.297Z,100778.88
2023-05-22T03:23:40.572Z,100776.28
2023-05-22T03:26:11.753Z,100777.96
2023-05-22T03:28:43.904Z,100773.48
2023-05-22T03:31:15.512Z,100777.02
2023-05-22T03:34:00.417Z,100776.10
2023-05-22T03:36:34.252Z,100774.67
2023-05-22T03:39:05.657Z,100777.65
2023-05-22T03:41:40.008Z,100774.80
2023-05-22T03:44:11.635Z,100775.52
2023-05-22T03:46:43.172Z,100777.93
2023-05-22T03:49:14.307Z,100776.52
2023-05-22T03:51:45.382Z,100781.23
2023-05-22T03:54:16.662Z,100785.73
2023-05-22T03:56:48.052Z,100786.10
2023-05-22T03:59:19.277Z,100783.54
2023-05-22T04:01:51.087Z,100782.59
2023-05-22T04:04:22.154Z,100781.13
2023-05-22T04:06:58.345Z,100781.80
2023-05-22T04:09:33.075Z,100778.17
2023-05-22T04:12:04.317Z,100778.64
2023-05-22T04:14:35.438Z,100774.20
2023-05-22T04:17:11.738Z,100773.65
2023-05-22T04:19:42.915Z,100770.64
2023-05-22T04:22:13.950Z,100771.48
2023-05-22T04:24:49.352Z,100768.73
2023-05-22T04:27:22.794Z,100758.30
2023-05-22T04:29:54.077Z,100752.81
2023-05-22T04:32:26.118Z,100751.25
2023-05-22T04:35:00.810Z,100749.64
2023-05-22T04:37:32.876Z,100750.56
2023-05-22T04:40:07.862Z,100752.25
2023-05-22T04:42:39.700Z,100749.19
2023-05-22T04:45:14.030Z,100751.86
2023-05-22T04:47:45.157Z,100751.88
2023-05-22T04:50:17.709Z,100757.87
2023-05-22T04:52:49.016Z,100748.23
2023-05-22T04:55:20.604Z,100750.27
2023-05-22T04:57:52.920Z,100753.20
2023-05-22T05:00:29.013Z,100755.13
2023-05-22T05:03:01.590Z,100750.66
2023-05-22T05:05:32.881Z,100750.50
2023-05-22T05:08:04.340Z,100744.34
2023-05-22T05:10:38.726Z,100745.81
2023-05-22T05:13:10.470Z,100751.03
2023-05-22T05:15:43.588Z,100752.26
2023-05-22T05:18:14.662Z,100756.77
2023-05-22T05:20:47.505Z,100756.50
2023-05-22T05:23:21.268Z,100756.27
2023-05-22T05:25:52.775Z,100758.73
2023-05-22T05:28:24.504Z,100757.73
2023-05-22T05:30:57.836Z,100762.17
2023-05-22T05:33:38.103Z,100759.23
2023-05-22T05:36:25.516Z,100758.70
2023-05-22T05:38:59.284Z,100756.02
2023-05-22T05:41:30.809Z,100759.55
2023-05-22T05:44:07.884Z,100760.66
2023-05-22T05:46:39.081Z,100760.23
2023-05-22T05:49:13.244Z,100757.14
2023-05-22T05:51:45.688Z,100757.42
2023-05-22T05:54:17.189Z,100759.00
2023-05-22T05:56:49.642Z,100757.92
2023-05-22T05:59:23.297Z,100758.48
2023-05-22T06:02:13.041Z,100756.99
2023-05-22T06:04:48.567Z,100751.06
2023-05-22T06:07:21.591Z,100751.00
2023-05-22T06:09:56.085Z,100750.20
2023-05-22T06:12:40.849Z,100745.20
2023-05-22T06:15:13.348Z,100747.70
2023-05-22T06:17:44.912Z,100748.17
2023-05-22T06:20:17.459Z,100745.20
2023-05-22T06:22:48.645Z,100742.43
2023-05-22T06:25:21.591Z,100738.88
2023-05-22T06:27:53.542Z,100739.73
2023-05-22T06:30:39.011Z,100738.45
2023-05-22T06:33:15.003Z,100734.67
2023-05-22T06:35:45.470Z,100734.02
2023-05-22T06:38:16.646Z,100730.86
2023-05-22T06:40:47.969Z,100728.87
2023-05-22T06:43:30.238Z,100732.20
2023-05-22T06:46:19.752Z,100730.59
2023-05-22T06:49:08.527Z,100733.78
2023-05-22T06:51:47.263Z,100731.27
2023-05-22T06:54:45.229Z,100728.70
2023-05-22T06:57:17.844Z,100729.05
2023-05-22T07:03:02.188Z,100730.06
2023-05-22T07:05:39.747Z,100726.46
2023-05-22T07:08:10.890Z,100723.53
2023-05-22T07:10:44.704Z,100719.58
2023-05-22T07:13:15.041Z,100720.11
2023-05-22T07:15:47.524Z,100719.52
2023-05-22T07:18:19.450Z,100718.57
2023-05-22T07:20:50.732Z,100718.13
2023-05-22T07:23:27.051Z,100714.07
2023-05-22T07:25:58.420Z,100714.83
2023-05-22T07:28:33.234Z,100714.87
2023-05-22T07:31:12.986Z,100715.95
2023-05-22T07:33:44.206Z,100710.19
2023-05-22T07:36:16.851Z,100709.01
2023-05-22T07:38:48.149Z,100714.88
2023-05-22T07:41:19.515Z,100713.52
2023-05-22T07:43:54.158Z,100712.36
2023-05-22T07:46:29.565Z,100709.81
2023-05-22T07:49:04.779Z,100707.39
2023-05-22T07:51:37.631Z,100700.75
2023-05-22T07:54:10.235Z,100703.30
2023-05-22T07:56:45.903Z,100703.06
2023-05-22T07:59:19.874Z,100696.74
2023-05-22T08:01:51.463Z,100695.23
2023-05-22T08:04:22.572Z,100692.67
2023-05-22T08:06:53.696Z,100697.16
2023-05-22T08:09:25.351Z,100694.09
2023-05-22T08:11:56.596Z,100695.48
2023-05-22T08:14:28.136Z,100698.38
2023-05-22T08:17:00.443Z,100695.35
2023-05-22T08:19:32.204Z,100696.77
2023-05-22T08:22:03.373Z,100696.73
2023-05-22T08:24:34.407Z,100690.48
2023-05-22T08:27:05.479Z,100687.96
2023-05-22T08:29:36.820Z,100685.63
2023-05-22T08:32:08.859Z,100687.64
2023-05-22T08:34:40.567Z,100685.89
2023-05-22T08:37:12.529Z,100689.59
2023-05-22T08:39:43.633Z,100686.74
2023-05-22T08:42:14.815Z,100683.96
2023-05-22T08:44:45.855Z,100686.02
2023-05-22T08:47:18.905Z,100686.21
2023-05-22T08:49:52.244Z,100680.05
2023-05-22T08:52:31.139Z,100679.40
2023-05-22T08:55:05.136Z,100676.69
2023-05-22T08:57:37.164Z,100682.64
2023-05-22T09:00:11.632Z,100677.39
2023-05-22T09:02:43.454Z,100678.64
2023-05-22T09:05:14.889Z,100681.25
2023-05-22T09:07:46.297Z,100678.73
2023-05-22T09:10:19.770Z,100679.27
2023-05-22T09:13:09.470Z,100675.91
2023-05-22T09:15:41.288Z,100673.25
2023-05-22T09:18:12.654Z,100670.02
2023-05-22T09:20:43.759Z,100669.21
2023-05-22T09:23:17.965Z,100663.95
2023-05-22T09:25:49.238Z,100659.82
2023-05-22T09:28:20.718Z,100660.23
2023-05-22T09:30:53.165Z,100659.99
2023-05-22T09:33:25.835Z,100661.25
2023-05-22T09:35:56.990Z,100657.73
2023-05-22T09:38:32.218Z,100655.05
2023-05-22T09:41:03.625Z,100653.77
2023-05-22T09:43:36.542Z,100652.98
2023-05-22T09:46:07.644Z,100653.27
2023-05-22T09:48:38.979Z,100653.27
2023-05-22T09:51:11.705Z,100651.00
2023-05-22T09:53:44.686Z,100644.57
2023-05-22T09:56:30.731Z,100642.66
2023-05-22T09:59:07.487Z,100642.48
2023-05-22T10:01:40.161Z,100642.89
2023-05-22T10:04:14.466Z,100638.52
2023-05-22T10:06:52.573Z,100641.00
2023-05-22T10:09:25.248Z,100641.95
2023-05-22T10:12:00.073Z,100638.45
2023-05-22T10:14:30.985Z,100641.33
2023-05-22T10:17:04.933Z,100638.40
2023-05-22T10:19:39.700Z,100637.16
2023-05-22T10:22:21.104Z,100641.28
2023-05-22T10:24:54.142Z,100641.10
2023-05-22T10:27:25.442Z,100636.33
2023-05-22T10:30:04.039Z,100633.52
2023-05-22T10:32:41.935Z,100634.20
2023-05-22T10:35:20.670Z,100630.66
2023-05-22T10:37:53.579Z,100630.32
2023-05-22T10:40:31.837Z,100632.37
2023-05-22T10:43:04.900Z,100626.92
2023-05-22T10:45:36.814Z,100620.34
2023-05-22T10:48:10.017Z,100623.12
2023-05-22T10:50:51.263Z,100621.45
2023-05-22T10:53:33.139Z,100618.45
2023-05-22T10:56:14.207Z,100620.64
2023-05-22T10:58:57.013Z,100622.98
2023-05-22T11:01:29.580Z,100625.19
2023-05-22T11:04:16.089Z,100616.70
2023-05-22T11:06:51.500Z,100611.80
2023-05-22T11:09:31.030Z,100616.19
2023-05-22T11:12:25.873Z,100613.79
2023-05-22T11:14:58.869Z,100610.41
2023-05-22T11:17:32.086Z,100611.77
2023-05-22T11:20:08.537Z,100605.40
2023-05-22T11:22:42.127Z,100605.11
2023-05-22T11:25:18.037Z,100597.36
2023-05-22T11:27:50.144Z,100592.52
2023-05-22T11:30:21.595Z,100588.02
2023-05-22T11:32:53.046Z,100588.41
2023-05-22T11:35:32.310Z,100587.45
2023-05-22T11:38:07.425Z,100590.00
2023-05-22T11:40:38.847Z,100581.29
2023-05-22T11:43:11.090Z,100582.70
2023-05-22T11:45:42.389Z,100584.80
2023-05-22T11:48:15.599Z,100580.96
2023-05-22T11:50:49.449Z,100584.36
2023-05-22T11:53:22.474Z,100578.98
2023-05-22T11:55:53.672Z,100574.17
2023-05-22T11:58:30.453Z,100581.84
2023-05-22T12:01:07.946Z,100580.56
2023-05-22T12:03:39.498Z,100574.36
2023-05-22T12:06:11.189Z,100566.95
2023-05-22T12:08:43.999Z,100567.98
2023-05-22T12:11:15.674Z,100564.41
2023-05-22T12:13:46.739Z,100562.28
2023-05-22T12:16:24.152Z,100558.79
2023-05-22T12:19:13.181Z,100554.48
2023-05-22T12:21:45.052Z,100548.21
2023-05-22T12:24:16.147Z,100551.00
2023-05-22T12:26:56.795Z,100548.95
2023-05-22T12:29:28.989Z,100548.48
2023-05-22T12:32:06.433Z,100548.55
2023-05-22T12:34:44.561Z,100541.13
2023-05-22T12:37:25.112Z,100541.50
2023-05-22T12:40:02.269Z,100540.73
2023-05-22T12:42:33.630Z,100542.35
2023-05-22T12:45:04.889Z,100535.98
2023-05-22T12:47:36.273Z,100533.42
2023-05-22T12:50:09.506Z,100528.14
2023-05-22T12:52:40.882Z,100529.11
2023-05-22T12:55:13.554Z,100528.60
2023-05-22T12:57:45.864Z,100527.80
2023-05-22T13:00:21.283Z,100533.61
2023-05-22T13:02:52.453Z,100528.73
2023-05-22T13:05:42.058Z,100529.88
2023-05-22T13:08:13.382Z,100527.96
2023-05-22T13:10:44.511Z,100525.58
2023-05-22T13:13:41.791Z,100520.59
2023-05-22T13:16:16.023Z,100523.56
2023-05-22T13:18:47.361Z,100523.94
2023-05-22T13:21:19.091Z,100524.19
2023-05-22T13:23:50.123Z,100519.13
2023-05-22T13:26:21.334Z,100524.85
2023-05-22T13:28:56.425Z,100523.70
2023-05-22T13:31:27.813Z,100516.36
2023-05-22T13:33:59.896Z,100517.21
2023-05-22T13:36:32.879Z,100513.98
2023-05-22T13:39:06.081Z,100510.40
2023-05-22T13:41:37.255Z,100509.31
2023-05-22T13:44:08.380Z,100500.27
2023-05-22T13:46:41.049Z,100494.14
2023-05-22T13:49:12.363Z,100493.02
2023-05-22T13:51:45.342Z,100487.52
2023-05-22T13:54:16.768Z,100483.70
2023-05-22T13:56:48.136Z,100481.47
2023-05-22T13:59:19.301Z,100480.30
2023-05-22T14:01:50.597Z,100481.64
2023-05-22T14:04:21.734Z,100482.50
2023-05-22T14:06:52.809Z,100480.55
2023-05-22T14:09:26.309Z,100478.86
2023-05-22T14:12:00.272Z,100480.23
2023-05-22T14:14:31.489Z,100476.33
2023-05-22T14:17:03.293Z,100473.99
2023-05-22T14:19:34.836Z,100477.92
2023-05-22T14:22:06.479Z,100471.40
2023-05-22T14:24:37.586Z,100473.65
2023-05-22T14:27:09.056Z,100466.35
2023-05-22T14:29:40.154Z,100460.79
2023-05-22T14:32:11.311Z,100460.89
2023-05-22T14:34:44.988Z,100459.66
2023-05-22T14:37:16.304Z,100465.75
2023-05-22T14:39:56.681Z,100462.11
2023-05-22T14:42:27.658Z,100461.63
2023-05-22T14:44:58.903Z,100460.84
2023-05-22T14:47:30.353Z,100459.08
2023-05-22T14:50:18.359Z,100457.38
2023-05-22T14:52:55.978Z,100454.17
2023-05-22T14:55:28.395Z,100454.38
2023-05-22T14:57:59.410Z,100454.81
2023-05-22T15:00:30.477Z,100453.21
2023-05-22T15:03:03.046Z,100452.86
2023-05-22T15:05:34.258Z,100447.67
2023-05-22T15:08:05.360Z,100449.69
2023-05-22T15:10:37.713Z,100447.73
2023-05-22T15:13:09.082Z,100444.72
2023-05-22T15:15:40.394Z,100441.41
2023-05-22T15:18:12.387Z,100442.78
2023-05-22T15:20:43.654Z,100439.66
2023-05-22T15:23:14.868Z,100437.09
2023-05-22T15:25:48.294Z,100434.10
2023-05-22T15:28:19.372Z,100436.58
2023-05-22T15:30:50.428Z,100430.55
2023-05-22T15:33:21.784Z,100426.77
2023-05-22T15:35:52.982Z,100431.13
2023-05-22T15:38:24.216Z,100429.02
2023-05-22T15:40:55.424Z,100427.21
2023-05-22T15:43:28.324Z,100426.69
2023-05-22T15:46:03.705Z,100422.50
2023-05-22T15:48:34.951Z,100420.64
2023-05-22T15:51:09.651Z,100418.14
2023-05-22T15:53:41.714Z,100413.16
2023-05-22T15:56:17.888Z,100408.11
2023-05-22T15:58:48.913Z,100409.58
2023-05-22T16:01:20.030Z,100406.66
2023-05-22T16:03:51.759Z,100408.10
2023-05-22T16:06:23.456Z,100403.66
2023-05-22T16:08:54.809Z,100402.77
2023-05-22T16:11:26.369Z,100398.41
2023-05-22T16:14:25.743Z,100400.28
2023-05-22T16:16:56.812Z,100398.69
2023-05-22T16:19:28.268Z,100400.27
2023-05-22T16:21:59.329Z,100396.25
2023-05-22T16:24:31.165Z,100390.59
2023-05-22T16:27:47.202Z,100389.32
2023-05-22T16:30:19.644Z,100385.97
2023-05-22T16:32:51.413Z,100386.06
2023-05-22T16:35:22.569Z,100386.65
2023-05-22T16:37:54.076Z,100390.11
2023-05-22T16:40:25.661Z,100393.86
2023-05-22T16:42:59.023Z,100394.14
2023-05-22T16:45:30.252Z,100395.64
2023-05-22T16:48:01.622Z,100396.19
2023-05-22T16:50:34.040Z,100393.02
2023-05-22T16:53:07.834Z,100394.19
2023-05-22T16:55:41.256Z,100395.52
2023-05-22T16:58:13.589Z,100393.27
2023-05-22T17:00:44.909Z,100399.08
2023-05-22T17:03:23.954Z,100399.46
2023-05-22T17:05:57.128Z,100398.10
2023-05-22T17:08:28.685Z,100405.16
2023-05-22T17:11:00.026Z,100403.15
2023-05-22T17:13:34.392Z,100402.70
2023-05-22T17:16:07.308Z,100400.60
2023-05-22T17:18:39.669Z,100399.73
2023-05-22T17:21:11.429Z,100398.98
2023-05-22T17:23:43.257Z,100400.74
2023-05-22T17:26:14.729Z,100406.52
2023-05-22T17:28:45.827Z,100404.15
2023-05-22T17:31:18.667Z,100406.31
2023-05-22T17:33:50.841Z,100404.17
2023-05-22T17:36:25.176Z,100404.57
2023-05-22T17:42:06.511Z,100403.89
2023-05-22T17:44:43.449Z,100404.99
2023-05-22T17:47:20.718Z,100399.73
2023-05-22T17:49:51.690Z,100397.38
2023-05-22T17:52:23.246Z,100397.91
2023-05-22T17:54:56.036Z,100399.38
2023-05-22T17:57:33.644Z,100398.59
2023-05-22T18:00:10.299Z,100397.50
2023-05-22T18:02:53.508Z,100394.72
2023-05-22T18:05:31.749Z,100397.06
2023-05-22T18:08:06.037Z,100393.66
2023-05-22T18:13:48.810Z,100396.17
2023-05-22T18:16:28.320Z,100397.23
2023-05-22T18:19:02.239Z,100396.50
2023-05-22T18:21:38.514Z,100400.17
2023-05-22T18:27:48.656Z,100399.14
2023-05-22T18:30:20.195Z,100398.25
2023-05-22T18:32:53.109Z,100396.64
2023-05-22T18:35:24.428Z,100398.66
2023-05-22T18:37:55.529Z,100399.36
2023-05-22T18:40:26.873Z,100403.14
2023-05-22T18:42:57.909Z,100401.05
2023-05-22T18:45:28.947Z,100403.64
2023-05-22T18:48:02.236Z,100404.97
2023-05-22T18:50:33.868Z,100405.97
2023-05-22T18:53:07.920Z,100404.54
2023-05-22T19:00:15.506Z,100409.83
2023-05-22T19:02:51.791Z,100410.64
2023-05-22T19:05:41.616Z,100412.25
2023-05-22T19:08:23.205Z,100413.42
2023-05-22T19:11:09.106Z,100412.09
2023-05-22T19:17:52.690Z,100410.20
2023-05-22T19:20:26.265Z,100410.11
2023-05-22T19:22:57.490Z,100405.23
2023-05-22T19:25:28.923Z,100408.05
2023-05-22T19:28:02.984Z,100409.30
2023-05-22T19:30:34.185Z,100412.89
2023-05-22T19:33:08.710Z,100419.52
2023-05-22T19:35:39.081Z,100417.73
2023-05-22T19:38:54.885Z,100418.65
2023-05-22T19:41:26.926Z,100413.45
2023-05-22T19:44:04.634Z,100407.68
2023-05-22T19:46:39.074Z,100410.41
2023-05-22T19:49:10.462Z,100406.89
2023-05-22T19:51:42.076Z,100406.32
2023-05-22T19:54:13.211Z,100408.77
2023-05-22T19:56:51.810Z,100408.81
2023-05-22T19:59:23.997Z,100411.98
2023-05-22T20:01:55.169Z,100408.58
2023-05-22T20:04:26.189Z,100407.21
2023-05-22T20:06:58.924Z,100406.40
2023-05-22T20:09:31.032Z,100405.81
2023-05-22T20:12:02.272Z,100407.09
2023-05-22T20:14:34.188Z,100405.80
2023-05-22T20:17:05.694Z,100405.05
2023-05-22T20:19:38.130Z,100405.78
2023-05-22T20:22:09.512Z,100404.80
2023-05-22T20:24:40.629Z,100401.95
2023-05-22T20:27:12.093Z,100399.10
2023-05-22T20:29:43.363Z,100398.59
2023-05-22T20:32:15.192Z,100400.02
2023-05-22T20:34:50.236Z,100400.80
2023-05-22T20:37:21.080Z,100403.05
2023-05-22T20:39:52.662Z,100398.45
2023-05-22T20:42:25.660Z,100398.00
2023-05-22T20:44:56.600Z,100395.45
2023-05-22T20:47:28.476Z,100392.90
2023-05-22T20:49:59.759Z,100391.69
2023-05-22T20:52:31.168Z,100391.52
2023-05-22T20:55:02.261Z,100389.66
2023-05-22T20:57:33.370Z,100388.13
2023-05-22T21:00:07.355Z,100392.45
2023-05-22T21:02:39.137Z,100390.24
2023-05-22T21:05:12.305Z,100394.05
2023-05-22T21:07:45.186Z,100396.42
2023-05-22T21:10:16.388Z,100398.11
2023-05-22T21:12:47.594Z,100399.33
2023-05-22T21:15:18.985Z,100397.36
2023-05-22T21:17:50.583Z,100395.79
2023-05-22T21:20:22.069Z,100395.23
2023-05-22T21:22:53.410Z,100393.34
2023-05-22T21:25:24.570Z,100389.73
2023-05-22T21:27:55.857Z,100389.69
2023-05-22T21:30:26.819Z,100390.49
2023-05-22T21:32:57.965Z,100390.43
2023-05-22T21:35:29.247Z,100389.67
2023-05-22T21:38:00.487Z,100388.19
2023-05-22T21:40:32.994Z,100386.02
2023-05-22T21:43:04.304Z,100387.52
2023-05-22T21:45:36.305Z,100389.37
2023-05-22T21:48:07.887Z,100391.55
2023-05-22T21:50:38.994Z,100396.15
2023-05-22T21:53:10.121Z,100395.93
2023-05-22T21:55:41.072Z,100397.30
2023-05-22T21:58:12.602Z,100393.66
2023-05-22T22:00:43.599Z,100391.20
2023-05-22T22:03:14.756Z,100388.05
2023-05-22T22:05:45.741Z,100389.49
2023-05-22T22:08:19.193Z,100389.11
2023-05-22T22:10:50.118Z,100392.87
2023-05-22T22:13:21.123Z,100391.14
2023-05-22T22:15:53.629Z,100391.93
2023-05-22T22:18:24.577Z,100391.05
2023-05-22T22:20:56.038Z,100388.41
2023-05-22T22:23:27.168Z,100387.16
2023-05-22T22:25:58.166Z,100386.93
2023-05-22T22:28:29.228Z,100387.05
2023-05-22T22:31:01.534Z,100384.93
2023-05-22T22:33:32.975Z,100382.13
2023-05-22T22:36:03.926Z,100381.56
2023-05-22T22:38:35.493Z,100379.08
2023-05-22T22:41:08.745Z,100377.54
2023-05-22T22:43:39.765Z,100383.48
2023-05-22T22:46:12.331Z,100380.38
2023-05-22T22:48:43.962Z,100377.71
2023-05-22T22:51:17.035Z,100377.96
2023-05-22T22:53:48.342Z,100377.87
2023-05-22T22:56:19.998Z,100376.73
2023-05-22T22:58:51.909Z,100375.09
2023-05-22T23:01:23.122Z,100369.88
2023-05-22T23:03:54.932Z,100366.02
2023-05-22T23:06:29.833Z,100366.98
2023-05-22T23:09:43.400Z,100361.41
2023-05-22T23:12:14.366Z,100357.75
2023-05-22T23:14:45.798Z,100355.30
2023-05-22T23:17:16.808Z,100354.52
2023-05-22T23:19:48.007Z,100354.45
2023-05-22T23:22:19.110Z,100349.71
2023-05-22T23:24:50.128Z,100347.58
2023-05-22T23:27:21.988Z,100348.48
2023-05-22T23:29:53.134Z,100347.13
2023-05-22T23:32:24.611Z,100346.16
2023-05-22T23:34:56.001Z,100343.59
2023-05-22T23:37:27.026Z,100339.48
2023-05-22T23:39:58.503Z,100339.70
2023-05-22T23:42:29.556Z,100341.27
2023-05-22T23:45:01.789Z,100341.13
2023-05-22T23:47:32.957Z,100340.84
2023-05-22T23:50:03.961Z,100339.85
2023-05-22T23:52:35.007Z,100340.22
2023-05-22T23:55:06.967Z,100339.25
2023-05-22T23:57:38.028Z,100339.45
